Home   Weather   USA   St Clair   Past weeks
Flag for USA

Past Weather in St Clair, Missouri, USA — Yesterday and Last 2 Weeks

Currently: 61 °F. Sunny. (Weather station: Washington Regional Airport, USA). See more current weather

Past Weather in St Clair — Graph

°F

St Clair Temperature Yesterday

Maximum temperature yesterday: 77 °F (at 1:35 pm)
Minimum temperature yesterday: 52 °F (at 12:55 am)
Average temperature yesterday: 63 °F

High & Low Weather Summary for the Past Weeks

 TemperatureHumidityPressure
High84 °F (Feb 27, 2:55 pm)100% (Feb 18, 10:55 pm)30.51 "Hg (Feb 18, 10:55 pm)
Low16 °F (Feb 18, 6:55 am)22% (Feb 29, 2:35 pm)29.29 "Hg (Feb 27, 2:35 pm)
Average48 °F66%29.95 "Hg
* Reported Feb 18 6:15 am — Mar 4 6:55 am, St Clair. Weather by CustomWeather, © 2024

Note: Actual official high and low records may vary slightly from our data, if they occured in-between our weather recording intervals... More about our weather records

St Clair Weather History for the Previous 24 Hours

Scroll right to see more
 ConditionsComfort  
Time TempWeatherWind HumidityBarometerVisibility
6:55 am
Mon, Mar 4
61 °FSunny.9 mph100%29.88 "Hg10 mi
6:35 am61 °FSunny.9 mph100%29.88 "Hg10 mi
6:15 am61 °FCool.8 mph100%29.88 "Hg10 mi
5:55 am59 °FCool.No wind100%29.89 "Hg10 mi
5:35 am59 °FCool.No wind100%29.88 "Hg10 mi
5:15 am61 °FCool.No wind100%29.89 "Hg10 mi
4:55 am61 °FCool.3 mph100%29.88 "Hg10 mi
4:35 am61 °FCool.No wind100%29.88 "Hg10 mi
4:15 am61 °FCool.No wind100%29.88 "Hg10 mi
3:55 am61 °FCool.No wind100%29.88 "Hg10 mi
3:35 am61 °FCool.No wind100%29.88 "Hg10 mi
3:15 am61 °FCool.No wind100%29.88 "Hg10 mi
2:35 am61 °FCool.No wind100%29.88 "Hg10 mi
2:15 am61 °FCool.No wind94%29.88 "Hg10 mi
1:55 am61 °FCool.No wind94%29.88 "Hg10 mi
1:35 am61 °FCool.No wind94%29.88 "Hg10 mi
1:15 am63 °FMild.No wind88%29.88 "Hg10 mi
12:55 am63 °FMild.No wind88%29.88 "Hg10 mi
12:35 am61 °FCool.5 mph94%29.87 "Hg10 mi
12:15 am63 °FMild.No wind88%29.87 "Hg10 mi
11:55 pm
Sun, Mar 3
63 °FMild.No wind94%29.87 "Hg10 mi
11:35 pm63 °FMild.No wind94%29.86 "Hg10 mi
11:15 pm63 °FMild.No wind94%29.86 "Hg10 mi
10:55 pm63 °FMild.No wind94%29.85 "Hg10 mi
10:35 pm63 °FMild.No wind94%29.85 "Hg10 mi
10:15 pm63 °FMild.No wind94%29.84 "Hg10 mi
9:55 pm63 °FMild.No wind88%29.84 "Hg10 mi
9:35 pm64 °FClear.6 mph83%29.83 "Hg10 mi
9:15 pm64 °FClear.12 mph83%29.82 "Hg10 mi
8:35 pm64 °FMild.12 mph78%29.81 "Hg10 mi
8:15 pm64 °FMild.12 mph78%29.80 "Hg10 mi
7:55 pm64 °FPassing clouds.12 mph73%29.80 "Hg10 mi
7:15 pm66 °FClear.12 mph68%29.79 "Hg10 mi
6:55 pm68 °FClear.14 mph60%29.78 "Hg10 mi
6:35 pm68 °FClear.12 mph60%29.77 "Hg10 mi
6:15 pm68 °FClear.16 mph60%29.76 "Hg10 mi
5:55 pm70 °FMild.17 mph57%29.75 "Hg10 mi
5:35 pm72 °FMild.16 mph53%29.74 "Hg10 mi
5:15 pm72 °FSunny.16 mph53%29.73 "Hg10 mi
4:55 pm73 °FSunny.21 mph47%29.73 "Hg10 mi
4:35 pm73 °FSunny.21 mph50%29.72 "Hg10 mi
4:15 pm75 °FSunny.23 mph44%29.71 "Hg10 mi
3:55 pm75 °FSunny.26 mph47%29.71 "Hg10 mi
3:35 pm77 °FSunny.25 mph44%29.71 "Hg10 mi
3:15 pm77 °FSunny.28 mph44%29.71 "Hg10 mi
2:15 pm77 °FSunny.23 mph42%29.72 "Hg10 mi
1:35 pm77 °FSunny.22 mph42%29.71 "Hg10 mi
1:15 pm75 °FSunny.26 mph44%29.71 "Hg10 mi
12:35 pm75 °FSunny.24 mph44%29.74 "Hg10 mi
12:15 pm75 °FSunny.24 mph44%29.76 "Hg10 mi
11:55 am73 °FSunny.25 mph44%29.77 "Hg10 mi
11:35 am72 °FSunny.21 mph53%29.79 "Hg10 mi
11:15 am72 °FSunny.21 mph53%29.81 "Hg10 mi
10:35 am68 °FSunny.23 mph60%29.82 "Hg10 mi
10:15 am68 °FSunny.21 mph64%29.83 "Hg10 mi
9:55 am68 °FSunny.20 mph64%29.83 "Hg10 mi
9:35 am66 °FSunny.17 mph68%29.84 "Hg10 mi
9:15 am64 °FSunny.14 mph68%29.85 "Hg10 mi
8:35 am61 °FSunny.8 mph77%29.87 "Hg10 mi
Weather by CustomWeather, © 2024

See weather overview